San Francisco, California
Traffic Map
Current Weather Conditions
San Francisco, California
Scattered Clouds
Scattered Clouds
17°
Feels Like: 17°
Wind Chill: 17° Ceiling: Unl
Heat Index: 17° Visibility: 10mi
Dew Point: 10° Wind: 21mph
Humidity: 63% Direction: 280° (W)
Pressure: 30.01in Gusts: 0mph
Raw Report DataKSFO 291956Z 28018KT 10SM FEW005 SCT013 17/10 A3001 RMK AO2 SLP161 T01720100
Traffic Incident Summary
Active as of:
Severity:
Category:
InformationThere was an issue retrieving the traffic information for this location. Please try a different location or try again shortly.
Advertisements
Track Severe Weather on mobile